Armstrong, Iowa
Current Conditions -  °F | °C
As of 4:52 AM on Friday 19 Dec 2014 (Local Time) from KEST Reporting Station
Haze Haze  
Wind Chill: -9°   Ceiling: 700
Heat Index: -3°   Visibility: 6mi
Dew Point: -4°   Wind: 10mph
Humidity: 92%   Direction: 170°S
Pressure: 30.19"   Gusts: NA
Location:  43.4°N, 94.48°W
Report Text: KEST 191052Z AUTO 17009KT 6SM BR OVC007 M03/M04 A3019 RMK AO2 SLP243 T10331044
Loading
Personal Weather Stations






























Interactive Weather Map New forecast layout! Learn more

10-Day Weather Forecast

Advertisements
Track Severe Weather on mobile